createdAt,value
2023-01-09T00:01:21.871Z,39.15
2023-01-09T00:03:52.604Z,38.98
2023-01-09T00:06:23.163Z,40.17
2023-01-09T00:08:53.989Z,42.60
2023-01-09T00:11:25.526Z,45.65
2023-01-09T00:13:57.641Z,41.08
2023-01-09T00:16:28.874Z,42.93
2023-01-09T00:19:01.175Z,41.92
2023-01-09T00:21:32.333Z,40.92
2023-01-09T00:24:03.756Z,38.92
2023-01-09T00:26:34.710Z,37.67
2023-01-09T00:29:05.437Z,38.63
2023-01-09T00:31:36.247Z,40.12
2023-01-09T00:34:12.817Z,39.80
2023-01-09T00:36:43.026Z,42.83
2023-01-09T00:39:13.562Z,41.80
2023-01-09T00:41:46.993Z,41.73
2023-01-09T00:44:23.383Z,39.03
2023-01-09T00:46:59.623Z,37.67
2023-01-09T00:49:33.624Z,40.28
2023-01-09T00:52:07.700Z,40.33
2023-01-09T00:54:39.171Z,43.68
2023-01-09T00:57:12.633Z,39.78
2023-01-09T00:59:46.859Z,38.33
2023-01-09T01:02:17.668Z,39.42
2023-01-09T01:05:06.171Z,39.33
2023-01-09T01:07:39.750Z,37.33
2023-01-09T01:10:20.361Z,37.35
2023-01-09T01:12:51.901Z,38.48
2023-01-09T01:15:22.448Z,38.55
2023-01-09T01:17:53.399Z,37.38
2023-01-09T01:20:24.855Z,39.30
2023-01-09T01:22:55.392Z,41.90
2023-01-09T01:25:25.933Z,41.23
2023-01-09T01:27:57.593Z,39.08
2023-01-09T01:30:28.402Z,39.20
2023-01-09T01:33:00.623Z,37.33
2023-01-09T01:35:31.171Z,37.90
2023-01-09T01:38:01.832Z,39.63
2023-01-09T01:40:32.667Z,38.83
2023-01-09T01:43:03.466Z,40.15
2023-01-09T01:45:34.666Z,38.15
2023-01-09T01:48:14.081Z,37.10
2023-01-09T01:50:50.574Z,39.55
2023-01-09T01:53:33.696Z,40.90
2023-01-09T01:56:13.379Z,37.45
2023-01-09T01:58:53.241Z,39.88
2023-01-09T02:01:26.339Z,37.17
2023-01-09T02:03:59.113Z,38.48
2023-01-09T02:06:32.023Z,43.48
2023-01-09T02:09:05.853Z,48.60
2023-01-09T02:11:36.574Z,46.75
2023-01-09T02:14:08.251Z,44.45
2023-01-09T02:17:05.248Z,43.33
2023-01-09T02:19:58.007Z,44.50
2023-01-09T02:22:40.650Z,42.88
2023-01-09T02:25:35.604Z,39.80
2023-01-09T02:28:24.341Z,38.08
2023-01-09T02:31:22.425Z,38.80
2023-01-09T02:34:30.852Z,40.23
2023-01-09T02:37:08.400Z,41.45
2023-01-09T02:39:44.543Z,40.78
2023-01-09T02:42:27.341Z,40.50
2023-01-09T02:44:57.901Z,43.15
2023-01-09T02:47:39.999Z,46.13
2023-01-09T02:50:13.498Z,43.73
2023-01-09T02:53:11.238Z,42.35
2023-01-09T02:55:47.404Z,45.78
2023-01-09T02:58:30.193Z,47.15
2023-01-09T03:01:24.618Z,41.60
2023-01-09T03:04:10.169Z,40.73
2023-01-09T03:06:52.770Z,44.55
2023-01-09T03:09:27.597Z,41.10
2023-01-09T03:12:04.071Z,40.43
2023-01-09T03:14:36.548Z,42.45
2023-01-09T03:17:10.021Z,37.35
2023-01-09T03:19:43.188Z,40.43
2023-01-09T03:22:14.110Z,39.38
2023-01-09T03:24:44.659Z,38.50
2023-01-09T03:27:16.164Z,39.90
2023-01-09T03:29:46.735Z,41.08
2023-01-09T03:32:20.583Z,41.92
2023-01-09T03:34:51.489Z,44.05
2023-01-09T03:37:23.128Z,44.03
2023-01-09T03:39:53.710Z,43.17
2023-01-09T03:42:24.975Z,45.00
2023-01-09T03:44:58.841Z,45.67
2023-01-09T03:47:29.407Z,41.92
2023-01-09T03:50:01.251Z,44.23
2023-01-09T03:52:31.930Z,48.38
2023-01-09T03:55:04.012Z,45.58
2023-01-09T03:57:35.204Z,47.00
2023-01-09T04:00:06.348Z,46.05
2023-01-09T04:02:36.973Z,48.90
2023-01-09T04:05:08.572Z,47.35
2023-01-09T04:07:42.285Z,47.55
2023-01-09T04:10:13.844Z,45.78
2023-01-09T04:12:44.369Z,48.02
2023-01-09T04:15:14.911Z,51.58
2023-01-09T04:17:45.789Z,50.40
2023-01-09T04:20:18.607Z,50.03
2023-01-09T04:22:49.545Z,46.68
2023-01-09T04:25:20.162Z,43.55
2023-01-09T04:27:51.032Z,43.20
2023-01-09T04:30:22.177Z,43.90
2023-01-09T04:32:54.919Z,45.03
2023-01-09T04:35:25.640Z,45.65
2023-01-09T04:37:56.189Z,45.17
2023-01-09T04:40:26.702Z,47.88
2023-01-09T04:42:57.468Z,48.33
2023-01-09T04:45:29.052Z,43.60
2023-01-09T04:48:00.183Z,49.73
2023-01-09T04:50:31.511Z,42.27
2023-01-09T04:53:02.193Z,45.75
2023-01-09T04:55:32.916Z,42.53
2023-01-09T04:58:07.770Z,45.10
2023-01-09T05:00:38.525Z,43.63
2023-01-09T05:03:09.124Z,44.42
2023-01-09T05:05:39.833Z,45.58
2023-01-09T05:08:10.903Z,44.53
2023-01-09T05:10:44.758Z,42.98
2023-01-09T05:13:15.297Z,43.68
2023-01-09T05:15:45.823Z,45.38
2023-01-09T05:18:16.643Z,43.05
2023-01-09T05:20:47.628Z,45.63
2023-01-09T05:23:20.371Z,40.35
2023-01-09T05:25:55.323Z,40.90
2023-01-09T05:28:27.516Z,41.45
2023-01-09T05:31:01.801Z,41.10
2023-01-09T05:33:34.560Z,42.48
2023-01-09T05:38:42.647Z,40.63
2023-01-09T05:41:14.787Z,32.20
2023-01-09T05:43:47.888Z,46.35
2023-01-09T05:46:20.210Z,47.30
2023-01-09T05:48:56.183Z,45.10
2023-01-09T05:51:28.849Z,43.58
2023-01-09T05:54:01.160Z,44.98
2023-01-09T05:56:33.596Z,43.10
2023-01-09T05:59:05.145Z,47.05
2023-01-09T06:01:36.632Z,43.85
2023-01-09T06:04:10.420Z,46.88
2023-01-09T06:06:47.265Z,44.08
2023-01-09T06:09:20.081Z,43.92
2023-01-09T06:11:59.584Z,44.33
2023-01-09T06:14:32.379Z,42.23
2023-01-09T06:17:07.769Z,39.92
2023-01-09T06:19:44.258Z,41.15
2023-01-09T06:22:19.489Z,42.33
2023-01-09T06:25:03.091Z,43.00
2023-01-09T06:27:43.625Z,42.65
2023-01-09T06:30:16.147Z,44.45
2023-01-09T06:32:54.471Z,46.45
2023-01-09T06:35:29.544Z,43.00
2023-01-09T06:38:08.419Z,45.73
2023-01-09T06:40:44.450Z,42.10
2023-01-09T06:43:16.060Z,43.80
2023-01-09T06:45:48.252Z,48.00
2023-01-09T06:48:21.693Z,44.35
2023-01-09T06:50:55.873Z,44.30
2023-01-09T06:53:27.449Z,44.33
2023-01-09T06:56:00.898Z,48.52
2023-01-09T06:58:32.668Z,60.95
2023-01-09T07:01:07.063Z,66.35
2023-01-09T07:03:39.189Z,55.03
2023-01-09T07:06:15.334Z,46.35
2023-01-09T07:08:47.875Z,46.67
2023-01-09T07:11:20.671Z,45.88
2023-01-09T07:13:54.779Z,47.50
2023-01-09T07:16:34.604Z,42.73
2023-01-09T07:19:08.407Z,42.20
2023-01-09T07:21:42.289Z,42.38
2023-01-09T07:24:16.520Z,42.77
2023-01-09T07:26:50.385Z,45.00
2023-01-09T07:29:33.597Z,41.05
2023-01-09T07:32:09.933Z,43.65
2023-01-09T07:34:43.426Z,45.67
2023-01-09T07:37:19.968Z,43.65
2023-01-09T07:39:51.033Z,44.05
2023-01-09T07:42:21.569Z,44.35
2023-01-09T07:44:52.552Z,43.17
2023-01-09T07:47:24.404Z,44.45
2023-01-09T07:49:54.987Z,45.05
2023-01-09T07:52:25.658Z,43.30
2023-01-09T07:54:56.274Z,42.60
2023-01-09T07:57:26.832Z,41.92
2023-01-09T07:59:57.626Z,44.30
2023-01-09T08:02:28.663Z,43.92
2023-01-09T08:04:59.391Z,40.23
2023-01-09T08:07:30.030Z,44.83
2023-01-09T08:10:00.551Z,43.78
2023-01-09T08:12:31.182Z,44.70
2023-01-09T08:15:01.792Z,44.23
2023-01-09T08:17:32.482Z,42.75
2023-01-09T08:20:03.061Z,42.88
2023-01-09T08:22:33.623Z,40.17
2023-01-09T08:25:04.319Z,44.05
2023-01-09T08:27:35.076Z,44.88
2023-01-09T08:30:05.974Z,42.08
2023-01-09T08:32:37.548Z,44.18
2023-01-09T08:35:10.224Z,45.55
2023-01-09T08:37:40.780Z,42.33
2023-01-09T08:40:12.216Z,42.33
2023-01-09T08:43:01.139Z,43.65
2023-01-09T08:45:50.070Z,45.98
2023-01-09T08:48:20.629Z,45.48
2023-01-09T08:50:51.259Z,49.15
2023-01-09T08:53:22.201Z,44.10
2023-01-09T08:55:52.767Z,47.33
2023-01-09T08:58:23.312Z,46.20
2023-01-09T09:00:53.845Z,44.30
2023-01-09T09:03:24.389Z,43.42
2023-01-09T09:05:56.057Z,44.80
2023-01-09T09:08:26.635Z,47.40
2023-01-09T09:10:57.575Z,47.20
2023-01-09T09:13:28.235Z,44.93
2023-01-09T09:15:58.798Z,44.38
2023-01-09T09:18:29.386Z,47.73
2023-01-09T09:21:01.089Z,47.10
2023-01-09T09:23:31.663Z,46.25
2023-01-09T09:26:02.196Z,43.02
2023-01-09T09:28:32.784Z,43.38
2023-01-09T09:31:04.894Z,44.63
2023-01-09T09:33:35.544Z,41.53
2023-01-09T09:36:06.404Z,43.70
2023-01-09T09:38:36.945Z,40.25
2023-01-09T09:41:42.829Z,44.13
2023-01-09T09:44:53.546Z,41.90
2023-01-09T09:47:28.493Z,41.37
2023-01-09T09:50:23.410Z,41.55
2023-01-09T09:53:09.034Z,44.48
2023-01-09T09:55:41.715Z,41.25
2023-01-09T09:58:30.117Z,46.53
2023-01-09T10:01:02.662Z,43.08
2023-01-09T10:03:54.268Z,42.00
2023-01-09T10:06:43.176Z,39.83
2023-01-09T10:09:32.539Z,40.33
2023-01-09T10:12:08.633Z,39.73
2023-01-09T10:14:39.969Z,39.10
2023-01-09T10:17:31.248Z,42.35
2023-01-09T10:20:19.459Z,38.55
2023-01-09T10:23:11.160Z,39.45
2023-01-09T10:26:00.070Z,41.33
2023-01-09T10:28:39.152Z,41.55
2023-01-09T10:31:24.843Z,41.08
2023-01-09T10:34:16.049Z,42.35
2023-01-09T10:37:04.535Z,43.33
2023-01-09T10:39:52.965Z,40.52
2023-01-09T10:42:48.527Z,41.65
2023-01-09T10:45:28.623Z,43.65
2023-01-09T10:48:22.816Z,40.52
2023-01-09T10:50:57.065Z,45.47
2023-01-09T10:53:39.232Z,45.10
2023-01-09T10:56:30.843Z,42.38
2023-01-09T10:59:01.846Z,43.85
2023-01-09T11:01:37.191Z,42.78
2023-01-09T11:04:10.674Z,41.95
2023-01-09T11:06:50.408Z,42.65
2023-01-09T11:09:21.069Z,44.48
2023-01-09T11:11:52.885Z,43.70
2023-01-09T11:14:30.755Z,46.18
2023-01-09T11:17:04.411Z,43.00
2023-01-09T11:19:35.042Z,41.73
2023-01-09T11:22:19.786Z,41.40
2023-01-09T11:24:53.211Z,41.98
2023-01-09T11:27:26.055Z,40.55
2023-01-09T11:30:17.685Z,43.13
2023-01-09T11:32:49.236Z,40.92
2023-01-09T11:35:27.232Z,42.38
2023-01-09T11:38:03.644Z,42.05
2023-01-09T11:40:39.749Z,43.83
2023-01-09T11:43:15.959Z,44.33
2023-01-09T11:46:00.509Z,43.30
2023-01-09T11:48:33.139Z,39.08
2023-01-09T11:51:06.904Z,42.30
2023-01-09T11:53:40.397Z,44.27
2023-01-09T11:56:12.789Z,42.85
2023-01-09T11:58:43.728Z,44.73
2023-01-09T12:01:28.974Z,43.08
2023-01-09T12:04:23.544Z,40.80
2023-01-09T12:07:05.833Z,40.78
2023-01-09T12:10:13.821Z,43.60
2023-01-09T12:12:53.293Z,42.93
2023-01-09T12:15:29.727Z,41.05
2023-01-09T12:18:06.214Z,43.80
2023-01-09T12:20:48.260Z,42.67
2023-01-09T12:23:54.819Z,43.87
2023-01-09T12:26:31.278Z,41.45
2023-01-09T12:29:38.086Z,41.23
2023-01-09T12:32:26.373Z,46.58
2023-01-09T12:35:25.439Z,51.25
2023-01-09T12:38:16.946Z,49.27
2023-01-09T12:41:07.874Z,47.95
2023-01-09T12:43:41.519Z,47.98
2023-01-09T12:46:20.223Z,47.60
2023-01-09T12:48:56.674Z,46.13
2023-01-09T12:51:32.724Z,43.25
2023-01-09T12:54:08.818Z,41.55
2023-01-09T12:56:42.262Z,46.65
2023-01-09T12:59:33.072Z,43.48
2023-01-09T13:02:16.435Z,42.33
2023-01-09T13:04:55.871Z,44.90
2023-01-09T13:07:29.385Z,43.45
2023-01-09T13:10:05.849Z,42.13
2023-01-09T13:12:39.337Z,41.98
2023-01-09T13:15:12.918Z,41.92
2023-01-09T13:17:49.375Z,39.92
2023-01-09T13:20:39.165Z,42.13
2023-01-09T13:23:16.313Z,54.73
2023-01-09T13:25:49.757Z,55.03
2023-01-09T13:28:47.290Z,55.78
2023-01-09T13:31:24.925Z,48.70
2023-01-09T13:33:58.907Z,44.60
2023-01-09T13:36:34.965Z,45.73
2023-01-09T13:39:07.757Z,45.05
2023-01-09T13:41:58.728Z,46.50
2023-01-09T13:44:31.449Z,45.50
2023-01-09T13:47:03.950Z,42.93
2023-01-09T13:49:37.450Z,44.35
2023-01-09T13:52:27.412Z,43.60
2023-01-09T13:55:00.947Z,41.45
2023-01-09T13:57:37.140Z,45.33
2023-01-09T14:00:22.188Z,44.00
2023-01-09T14:02:58.053Z,46.73
2023-01-09T14:05:31.651Z,45.28
2023-01-09T14:08:20.046Z,44.30
2023-01-09T14:10:57.472Z,43.70
2023-01-09T14:13:34.356Z,46.83
2023-01-09T14:16:20.767Z,42.08
2023-01-09T14:18:57.631Z,46.48
2023-01-09T14:21:29.745Z,47.38
2023-01-09T14:24:07.240Z,44.40
2023-01-09T14:26:49.139Z,43.52
2023-01-09T14:29:34.542Z,49.70
2023-01-09T14:32:29.165Z,44.80
2023-01-09T14:35:10.913Z,46.42
2023-01-09T14:37:43.678Z,48.35
2023-01-09T14:40:20.131Z,45.08
2023-01-09T14:42:53.611Z,53.13
2023-01-09T14:45:26.811Z,52.08
2023-01-09T14:48:06.131Z,45.67
2023-01-09T14:50:53.189Z,46.90
2023-01-09T14:53:32.764Z,61.73
2023-01-09T14:56:06.843Z,60.35
2023-01-09T14:58:38.750Z,62.08
2023-01-09T15:01:15.421Z,63.28
2023-01-09T15:03:56.664Z,56.20
2023-01-09T15:06:31.439Z,53.70
2023-01-09T15:09:10.841Z,62.70
2023-01-09T15:11:42.311Z,67.12
2023-01-09T15:14:34.048Z,61.13
2023-01-09T15:17:05.551Z,57.98
2023-01-09T15:19:36.442Z,64.25
2023-01-09T15:22:09.619Z,69.82
2023-01-09T15:24:40.201Z,71.30
2023-01-09T15:27:23.116Z,77.47
2023-01-09T15:29:54.143Z,80.05
2023-01-09T15:32:27.739Z,74.77
2023-01-09T15:34:59.188Z,76.85
2023-01-09T15:37:32.657Z,71.60
2023-01-09T15:40:06.406Z,64.50
2023-01-09T15:42:58.005Z,66.00
2023-01-09T15:45:35.411Z,55.80
2023-01-09T15:48:21.135Z,56.60
2023-01-09T15:51:13.593Z,58.05
2023-01-09T15:53:46.517Z,67.45
2023-01-09T15:56:20.817Z,66.75
2023-01-09T15:58:55.686Z,67.78
2023-01-09T16:01:37.768Z,61.35
2023-01-09T16:04:17.394Z,61.45
2023-01-09T16:06:52.804Z,56.53
2023-01-09T16:12:01.012Z,58.45
2023-01-09T16:14:38.810Z,59.13
2023-01-09T16:17:12.293Z,62.03
2023-01-09T16:19:54.663Z,65.40
2023-01-09T16:22:30.524Z,67.53
2023-01-09T16:25:03.562Z,74.15
2023-01-09T16:27:36.827Z,73.12
2023-01-09T16:30:09.024Z,73.62
2023-01-09T16:32:51.602Z,70.25
2023-01-09T16:35:24.494Z,69.95
2023-01-09T16:37:55.074Z,70.37
2023-01-09T16:40:28.188Z,78.05
2023-01-09T16:43:01.540Z,80.03
2023-01-09T16:45:44.368Z,72.45
2023-01-09T16:48:18.353Z,68.10
2023-01-09T16:50:48.875Z,63.98
2023-01-09T16:53:22.875Z,63.05
2023-01-09T16:55:56.101Z,61.23
2023-01-09T16:58:32.312Z,58.33
2023-01-09T17:01:03.002Z,59.80
2023-01-09T17:03:33.728Z,60.65
2023-01-09T17:06:06.499Z,62.27
2023-01-09T17:08:38.754Z,57.78
2023-01-09T17:11:13.312Z,59.53
2023-01-09T17:13:43.909Z,57.67
2023-01-09T17:16:15.732Z,58.60
2023-01-09T17:18:46.813Z,56.20
2023-01-09T17:21:23.816Z,60.80
2023-01-09T17:24:12.617Z,68.12
2023-01-09T17:26:56.352Z,69.35
2023-01-09T17:29:28.460Z,68.05
2023-01-09T17:31:59.776Z,75.37
2023-01-09T17:34:30.420Z,65.03
2023-01-09T17:37:03.102Z,67.20
2023-01-09T17:39:33.261Z,73.50
2023-01-09T17:42:03.807Z,68.05
2023-01-09T17:44:34.377Z,76.30
2023-01-09T17:47:06.234Z,68.35
2023-01-09T17:49:37.934Z,60.03
2023-01-09T17:52:08.565Z,55.43
2023-01-09T17:54:39.355Z,52.75
2023-01-09T17:57:12.797Z,50.70
2023-01-09T17:59:45.024Z,45.08
2023-01-09T18:02:19.747Z,42.15
2023-01-09T18:04:50.332Z,43.35
2023-01-09T18:07:20.859Z,44.38
2023-01-09T18:09:51.444Z,42.85
2023-01-09T18:12:22.013Z,45.10
2023-01-09T18:14:53.889Z,42.27
2023-01-09T18:17:24.518Z,48.13
2023-01-09T18:19:55.098Z,44.00
2023-01-09T18:22:26.782Z,44.83
2023-01-09T18:24:57.385Z,43.33
2023-01-09T18:27:28.328Z,42.17
2023-01-09T18:30:00.600Z,39.08
2023-01-09T18:32:32.221Z,39.98
2023-01-09T18:35:03.126Z,41.33
2023-01-09T18:37:35.095Z,39.63
2023-01-09T18:40:07.423Z,40.38
2023-01-09T18:42:39.390Z,43.48
2023-01-09T18:45:11.267Z,38.92
2023-01-09T18:47:41.824Z,37.35
2023-01-09T18:50:12.819Z,39.80
2023-01-09T18:52:44.184Z,39.33
2023-01-09T18:55:14.807Z,38.02
2023-01-09T18:57:45.458Z,37.45
2023-01-09T19:00:16.586Z,37.73
2023-01-09T19:02:47.130Z,39.15
2023-01-09T19:05:17.753Z,39.90
2023-01-09T19:07:49.408Z,38.05
2023-01-09T19:10:21.174Z,39.20
2023-01-09T19:12:51.742Z,39.75
2023-01-09T19:15:22.357Z,37.25
2023-01-09T19:17:53.065Z,39.23
2023-01-09T19:20:23.939Z,37.73
2023-01-09T19:22:57.174Z,38.40
2023-01-09T19:25:27.797Z,35.20
2023-01-09T19:28:00.008Z,35.60
2023-01-09T19:30:31.653Z,36.13
2023-01-09T19:33:02.171Z,39.10
2023-01-09T19:35:33.960Z,34.85
2023-01-09T19:38:04.734Z,34.55
2023-01-09T19:40:36.715Z,34.05
2023-01-09T19:43:07.265Z,36.13
2023-01-09T19:45:42.164Z,32.63
2023-01-09T19:48:12.697Z,35.95
2023-01-09T19:50:44.254Z,32.48
2023-01-09T19:53:14.790Z,31.50
2023-01-09T19:55:45.398Z,35.43
2023-01-09T19:58:15.979Z,31.48
2023-01-09T20:00:46.601Z,30.77
2023-01-09T20:03:17.205Z,29.48
2023-01-09T20:05:47.815Z,29.80
2023-01-09T20:08:19.416Z,26.80
2023-01-09T20:10:50.013Z,27.90
2023-01-09T20:13:20.566Z,25.97
2023-01-09T20:15:51.132Z,26.52
2023-01-09T20:18:21.703Z,24.75
2023-01-09T20:20:53.208Z,26.75
2023-01-09T20:23:27.598Z,25.57
2023-01-09T20:25:59.918Z,23.47
2023-01-09T20:28:30.634Z,25.40
2023-01-09T20:31:01.216Z,22.20
2023-01-09T20:33:31.769Z,22.55
2023-01-09T20:36:02.926Z,23.18
2023-01-09T20:38:34.381Z,23.27
2023-01-09T20:41:10.087Z,24.05
2023-01-09T20:43:40.908Z,25.32
2023-01-09T20:46:11.507Z,23.42
2023-01-09T20:48:42.118Z,21.00
2023-01-09T20:51:13.898Z,22.07
2023-01-09T20:53:50.430Z,20.20
2023-01-09T20:56:21.018Z,20.72
2023-01-09T20:58:53.105Z,21.33
2023-01-09T21:01:24.399Z,22.10
2023-01-09T21:03:57.373Z,21.12
2023-01-09T21:06:28.488Z,20.82
2023-01-09T21:08:59.150Z,22.77
2023-01-09T21:11:29.665Z,20.08
2023-01-09T21:14:00.215Z,19.23
2023-01-09T21:16:30.846Z,21.55
2023-01-09T21:19:01.438Z,21.80
2023-01-09T21:21:32.035Z,19.90
2023-01-09T21:24:04.093Z,22.45
2023-01-09T21:26:34.782Z,19.85
2023-01-09T21:29:06.901Z,19.98
2023-01-09T21:31:37.510Z,20.35
2023-01-09T21:34:12.916Z,18.35
2023-01-09T21:39:14.717Z,18.80
2023-01-09T21:42:03.070Z,19.40
2023-01-09T21:44:52.710Z,18.35
2023-01-09T21:47:24.401Z,18.50
2023-01-09T21:49:55.984Z,18.32
2023-01-09T21:52:26.592Z,17.50
2023-01-09T21:54:57.997Z,19.60
2023-01-09T21:57:28.520Z,17.20
2023-01-09T21:59:59.099Z,18.75
2023-01-09T22:02:29.631Z,17.80
2023-01-09T22:05:01.395Z,17.20
2023-01-09T22:07:31.941Z,18.02
2023-01-09T22:10:04.666Z,17.32
2023-01-09T22:12:35.562Z,17.20
2023-01-09T22:15:07.928Z,16.30
2023-01-09T22:17:38.473Z,16.45
2023-01-09T22:20:10.354Z,17.60
2023-01-09T22:22:40.915Z,18.75
2023-01-09T22:25:11.706Z,17.98
2023-01-09T22:27:44.018Z,17.73
2023-01-09T22:30:15.874Z,18.62
2023-01-09T22:32:46.467Z,21.45
2023-01-09T22:35:17.167Z,25.45
2023-01-09T22:37:47.755Z,24.35
2023-01-09T22:40:19.430Z,21.25
2023-01-09T22:42:54.289Z,20.97
2023-01-09T22:45:26.160Z,21.23
2023-01-09T22:47:57.427Z,22.22
2023-01-09T22:50:27.985Z,19.02
2023-01-09T22:52:58.635Z,19.52
2023-01-09T22:55:29.150Z,21.07
2023-01-09T22:57:59.827Z,21.45
2023-01-09T23:00:30.730Z,22.45
2023-01-09T23:07:01.410Z,18.05
2023-01-09T23:09:31.625Z,19.40
2023-01-09T23:12:05.693Z,20.10
2023-01-09T23:14:38.580Z,19.65
2023-01-09T23:17:11.699Z,16.70
2023-01-09T23:19:42.264Z,17.40
2023-01-09T23:22:12.791Z,18.27
2023-01-09T23:24:43.377Z,18.57
2023-01-09T23:27:13.871Z,17.62
2023-01-09T23:29:44.429Z,20.92
2023-01-09T23:32:14.981Z,19.52
2023-01-09T23:34:47.141Z,18.60
2023-01-09T23:37:17.840Z,21.93
2023-01-09T23:39:48.433Z,19.07
2023-01-09T23:42:36.719Z,18.98
2023-01-09T23:45:07.759Z,18.45
2023-01-09T23:47:40.960Z,18.42
2023-01-09T23:50:12.744Z,17.45
2023-01-09T23:52:43.279Z,17.32
2023-01-09T23:55:15.175Z,17.05
2023-01-09T23:57:45.673Z,17.55
